Tracy, CA

3:08 PM PDT on September 02, 2014 (GMT -0700)
MacArthur/Schulte | Change Station
CLOSE
Current Station
Personal Weather Station
Location: Tracy, CA
Elevation: 105 ft
Nearby Weather Stations

Elev 105 ft 37.73 °N, 121.42 °W | Updated 24 seconds ago

Clear
Clear
90.6 °F
Feels Like 89 °F
N
9.0
Wind Variable Wind from NW
Gusts 16.0 mph

Today
High -- | Low -- °F
--% Chance of Precip.
Yesterday
High -- | Low -- °F
Precip. -- in
6:36 AM 7:33 PM
First Quarter, 55% visible
Pressure 29.73 in
Visibility 10.0 miles
Clouds Clear
Heat Index 89 °F
Dew Point 56 °F
Humidity 31%
Rainfall 0.00 in
Snow Depth Not available.
UV 8 out of 12
Pollen 7.30 out of 12
PM2.5 Moderate
Flu Activity Not available.
METAR KSCK 022155Z 30010KT 10SM CLR 35/13 A2973 RMK AO2 SLP066 T03500128

More Conditions Fewer Conditions

Pressure 29.73 in
Visibility 10.0 miles
Clouds Clear
Heat Index 89 °F
Dew Point 56 °F
Humidity 31%
Rainfall 0.00 in
Snow Depth Not available.
UV 8 out of 12
Pollen 7.30 out of 12
PM2.5 Moderate
Flu Activity Not available.
METAR KSCK 022155Z 30010KT 10SM CLR 35/13 A2973 RMK AO2 SLP066 T03500128

More Conditions Fewer Conditions

10-Day Weather Forecast

Almanac

Astronomy

Sep. 02, 2014 Rise Set
Actual Time 6:36 AM PDT 7:33 PM PDT
Civil Twilight 6:09 AM PDT 7:59 PM PDT
Nautical Twilight 5:38 AM PDT 8:31 PM PDT
Astronomical Twilight 5:05 AM PDT 9:04 PM PDT
Moon 2:18 PM PDT No Moon Set
Length of Visible Light 13h 50m
Length of Day
12h 56m
Tomorrow will be 2m 21s shorter.
First Quarter, 55% of the Moon is Illuminated
Today
First Quarter
Sep 8
Full
Sep 15
Last Quarter
Sep 24
New
Oct 1
First Quarter

Today's Extremes

State Highs State Lows

Community

WunderPhotos

Upload Photos

1,749,782 photos uploaded!

Nearby

Air Quality

  Air Quality AQ Index Pollutant
Yesterday Moderate
PM2.5
Yesterday Good
OZONE
Current Moderate
PM2.5
Tuesday Good
OZONE
Wednesday Good
OZONE
Thursday Good
OZONE
Friday Good
OZONE
Saturday Good
OZONE

Snow Depth

Station Depth Elevation
Leavitt Meadows 0 in 7200 ft
Fallen Leaf 0 in 6300 ft
Summit Meadow 0 in 9122 ft
CSS Lab 1 in 6900 ft
Adin Mountain 0 in 6200 ft

Earthquake Activity

City Distance Mag. Time & Date
Cobb, California 105 miles 2.5 12:00 PM PDT
2014-09-02
Yountville, California 68 miles 2.6 1:15 PM PDT
2014-09-01
Gilroy, California 51 miles 3.5 9:10 AM PDT
2014-09-01
Green Valley, California 54 miles 2.5 6:37 AM PDT
2014-08-31
Minimum magnitude displayed is 2.5.

Coastal Water Temperatures

Place Temperature
San Francisco, CA 64.9 °F
Richmond, CA 69.1 °F
Port Chicago, CA 71.1 °F

Nearby Weather Stations